METAR Data
IDs: Format: Raw Decoded Include TAF

Data at: 0712 UTC 03 Aug 2021

KIPL 030653Z AUTO 26009KT 10SM CLR 32/04 A2980 RMK AO2 SLP092 T03170044
KIPL 030553Z AUTO 26008KT 10SM CLR 34/04 A2980 RMK AO2 SLP092 T03390044 10450 20322 51016
KIPL 030453Z AUTO 25007KT 10SM CLR 32/06 A2980 RMK AO2 SLP092 T03220061
KIPL 030353Z AUTO 26009KT 10SM CLR 37/05 A2979 RMK AO2 SLP087 T03670050
KIPL 030253Z AUTO 00000KT 10SM FEW110 39/09 A2975 RMK AO2 SLP076 T03890089 55001
KIPL 030153Z AUTO 35005KT 10SM BKN110 44/03 A2975 RMK AO2 SLP075 T04390033
KIPL 030053Z AUTO 29004KT 10SM BKN110 44/05 A2975 RMK AO2 SLP074 T04390050
KIPL 022353Z AUTO 06007KT 10SM BKN110 45/06 A2976 RMK AO2 SLP077 T04500056 10456 20400 56026
KIPL 022253Z AUTO 06007KT 030V100 10SM BKN110 46/06 A2977 RMK AO2 SLP083 T04560061
KIPL 022153Z AUTO VRB03KT 10SM SCT100 SCT120 45/06 A2980 RMK AO2 SLP092 T04500056
KIPL 022053Z AUTO 00000KT 10SM SCT110 44/04 A2983 RMK AO2 SLP103 T04390039 58022
KIPL 021953Z AUTO VRB03KT 10SM CLR 43/04 A2986 RMK AO2 SLP112 T04280044
KIPL 021853Z AUTO 00000KT 10SM CLR 41/04 A2988 RMK AO2 SLP119 T04110039
KIPL 021753Z AUTO 30003KT 9SM CLR 40/04 A2990 RMK AO2 SLP125 T04000039 10400 20261 58005
KIPL 021653Z AUTO 26003KT 10SM CLR 37/07 A2991 RMK AO2 SLP128 T03720067
KIPL 021553Z AUTO 27003KT 10SM CLR 34/09 A2992 RMK AO2 SLP132 T03440094
KIPL 021453Z AUTO 28004KT 10SM CLR 32/11 A2991 RMK AO2 SLP130 T03170106 51017
KIPL 021353Z AUTO 00000KT 10SM CLR 28/08 A2991 RMK AO2 SLP128 T02830078
KIPL 021253Z AUTO 25003KT 10SM CLR 27/09 A2989 RMK AO2 SLP122 T02670094
KIPL 021153Z AUTO 24005KT 10SM CLR 27/11 A2986 RMK AO2 SLP113 T02670106 10339 20267 51003
KIPL 021053Z AUTO 26006KT 10SM CLR 28/09 A2986 RMK AO2 SLP112 T02780089
KIPL 020953Z AUTO 23005KT 10SM CLR 27/09 A2986 RMK AO2 SLP112 T02720094
KIPL 020853Z AUTO 31004KT 10SM CLR 29/09 A2985 RMK AO2 SLP110 T02890094 50000
KIPL 020753Z AUTO 31006KT 10SM CLR 32/07 A2986 RMK AO2 SLP113 T03220067 404390272
KIPL 020653Z AUTO 29008KT 10SM CLR 32/08 A2987 RMK AO2 SLP115 T03220078
KIPL 020553Z AUTO 26009KT 10SM CLR 34/07 A2985 RMK AO2 SLP110 T03390067 10433 20322 51021
KIPL 020453Z AUTO 28006KT 10SM CLR 32/09 A2984 RMK AO2 SLP105 T03220089
KIPL 020353Z AUTO 29008KT 10SM CLR 37/07 A2981 RMK AO2 SLP096 T03670067
KIPL 020253Z AUTO 08003KT 10SM CLR 41/08 A2979 RMK AO2 SLP090 T04060083 55001
KIPL 020153Z AUTO 08005KT 10SM FEW120 43/08 A2978 RMK AO2 SLP086 T04280083
KIPL 020053Z AUTO 07003KT 10SM SCT110 43/08 A2979 RMK AO2 SLP087 T04280083
KIPL 012353Z AUTO 10SM SCT110 43/09 A2980 RMK AO2 SLP091 T04330089 10439 20383 56021
KIPL 012253Z AUTO 02006KT 10SM CLR 43/08 A2982 RMK AO2 SLP097 T04330083
KIPL 012153Z AUTO 09008KT 10SM FEW110 44/09 A2984 RMK AO2 SLP105 T04390094
KIPL 012053Z AUTO 11009KT 10SM CLR 43/12 A2986 RMK AO2 SLP112 T04280122 58023
KIPL 011953Z AUTO 10004KT 10SM CLR 41/09 A2989 RMK AO2 SLP121 T04110089